sensor_id;sensor_type;location;lat;lon;timestamp;P1;durP1;ratioP1;P2;durP2;ratioP2
42096;SDS011;27754;45.414;11.084;2023-10-19T00:00:36;58.17;;;34.30;;
42096;SDS011;27754;45.414;11.084;2023-10-19T00:03:06;54.08;;;33.45;;
42096;SDS011;27754;45.414;11.084;2023-10-19T00:05:33;53.92;;;35.90;;
42096;SDS011;27754;45.414;11.084;2023-10-19T00:08:01;54.45;;;33.53;;
42096;SDS011;27754;45.414;11.084;2023-10-19T00:10:45;57.53;;;35.67;;
42096;SDS011;27754;45.414;11.084;2023-10-19T00:13:37;55.78;;;34.17;;
42096;SDS011;27754;45.414;11.084;2023-10-19T00:16:06;57.55;;;36.15;;
42096;SDS011;27754;45.414;11.084;2023-10-19T00:18:39;54.92;;;34.72;;
42096;SDS011;27754;45.414;11.084;2023-10-19T00:21:09;62.67;;;36.47;;
42096;SDS011;27754;45.414;11.084;2023-10-19T00:23:47;60.13;;;37.60;;
42096;SDS011;27754;45.414;11.084;2023-10-19T00:26:15;63.40;;;38.33;;
42096;SDS011;27754;45.414;11.084;2023-10-19T00:29:00;67.55;;;39.30;;
42096;SDS011;27754;45.414;11.084;2023-10-19T00:31:41;67.68;;;39.75;;
42096;SDS011;27754;45.414;11.084;2023-10-19T00:34:08;72.03;;;40.67;;
42096;SDS011;27754;45.414;11.084;2023-10-19T00:36:35;66.47;;;39.00;;
42096;SDS011;27754;45.414;11.084;2023-10-19T00:39:06;66.47;;;40.38;;
42096;SDS011;27754;45.414;11.084;2023-10-19T00:41:41;68.28;;;39.97;;
42096;SDS011;27754;45.414;11.084;2023-10-19T00:44:10;65.43;;;39.75;;
42096;SDS011;27754;45.414;11.084;2023-10-19T00:46:38;65.80;;;40.45;;
42096;SDS011;27754;45.414;11.084;2023-10-19T00:49:09;63.00;;;38.40;;
42096;SDS011;27754;45.414;11.084;2023-10-19T00:51:45;65.72;;;39.55;;
42096;SDS011;27754;45.414;11.084;2023-10-19T00:54:39;68.22;;;40.75;;
42096;SDS011;27754;45.414;11.084;2023-10-19T00:57:28;69.55;;;41.13;;
42096;SDS011;27754;45.414;11.084;2023-10-19T01:00:02;66.15;;;40.10;;
42096;SDS011;27754;45.414;11.084;2023-10-19T01:02:38;70.15;;;39.33;;
42096;SDS011;27754;45.414;11.084;2023-10-19T01:05:13;68.30;;;39.50;;
42096;SDS011;27754;45.414;11.084;2023-10-19T01:07:40;65.57;;;39.95;;
42096;SDS011;27754;45.414;11.084;2023-10-19T01:10:10;72.93;;;39.78;;
42096;SDS011;27754;45.414;11.084;2023-10-19T01:12:47;64.68;;;40.97;;
42096;SDS011;27754;45.414;11.084;2023-10-19T01:15:15;65.00;;;40.60;;
42096;SDS011;27754;45.414;11.084;2023-10-19T01:17:44;69.95;;;40.45;;
42096;SDS011;27754;45.414;11.084;2023-10-19T01:20:20;69.32;;;40.13;;
42096;SDS011;27754;45.414;11.084;2023-10-19T01:23:07;66.18;;;38.95;;
42096;SDS011;27754;45.414;11.084;2023-10-19T01:25:43;72.43;;;41.92;;
42096;SDS011;27754;45.414;11.084;2023-10-19T01:28:20;70.28;;;41.83;;
42096;SDS011;27754;45.414;11.084;2023-10-19T01:31:05;73.68;;;41.53;;
42096;SDS011;27754;45.414;11.084;2023-10-19T01:33:33;63.60;;;39.45;;
42096;SDS011;27754;45.414;11.084;2023-10-19T01:36:01;65.07;;;39.55;;
42096;SDS011;27754;45.414;11.084;2023-10-19T01:38:40;70.22;;;42.13;;
42096;SDS011;27754;45.414;11.084;2023-10-19T01:41:08;73.82;;;43.47;;
42096;SDS011;27754;45.414;11.084;2023-10-19T01:43:49;68.18;;;40.90;;
42096;SDS011;27754;45.414;11.084;2023-10-19T01:46:20;76.57;;;43.15;;
42096;SDS011;27754;45.414;11.084;2023-10-19T01:48:51;74.68;;;42.10;;
42096;SDS011;27754;45.414;11.084;2023-10-19T01:51:22;73.55;;;42.78;;
42096;SDS011;27754;45.414;11.084;2023-10-19T01:53:55;72.57;;;39.95;;
42096;SDS011;27754;45.414;11.084;2023-10-19T01:56:23;66.95;;;40.15;;
42096;SDS011;27754;45.414;11.084;2023-10-19T01:58:51;64.00;;;38.17;;
42096;SDS011;27754;45.414;11.084;2023-10-19T02:01:18;63.17;;;40.63;;
42096;SDS011;27754;45.414;11.084;2023-10-19T02:03:57;67.68;;;39.92;;
42096;SDS011;27754;45.414;11.084;2023-10-19T02:06:28;65.72;;;40.17;;
42096;SDS011;27754;45.414;11.084;2023-10-19T02:09:07;62.78;;;39.08;;
42096;SDS011;27754;45.414;11.084;2023-10-19T02:11:45;65.53;;;40.17;;
42096;SDS011;27754;45.414;11.084;2023-10-19T02:14:18;64.22;;;39.78;;
42096;SDS011;27754;45.414;11.084;2023-10-19T02:16:47;60.00;;;38.70;;
42096;SDS011;27754;45.414;11.084;2023-10-19T02:19:20;62.50;;;39.50;;
42096;SDS011;27754;45.414;11.084;2023-10-19T02:21:48;62.60;;;38.83;;
42096;SDS011;27754;45.414;11.084;2023-10-19T02:24:18;63.65;;;38.58;;
42096;SDS011;27754;45.414;11.084;2023-10-19T02:26:50;61.42;;;38.83;;
42096;SDS011;27754;45.414;11.084;2023-10-19T02:29:18;56.33;;;37.60;;
42096;SDS011;27754;45.414;11.084;2023-10-19T02:31:45;55.53;;;37.70;;
42096;SDS011;27754;45.414;11.084;2023-10-19T02:34:14;59.45;;;38.55;;
42096;SDS011;27754;45.414;11.084;2023-10-19T02:36:42;59.75;;;36.95;;
42096;SDS011;27754;45.414;11.084;2023-10-19T02:39:11;58.75;;;37.22;;
42096;SDS011;27754;45.414;11.084;2023-10-19T02:41:41;59.05;;;37.28;;
42096;SDS011;27754;45.414;11.084;2023-10-19T02:44:20;54.25;;;35.03;;
42096;SDS011;27754;45.414;11.084;2023-10-19T02:46:53;52.80;;;36.00;;
42096;SDS011;27754;45.414;11.084;2023-10-19T02:49:35;57.10;;;34.17;;
42096;SDS011;27754;45.414;11.084;2023-10-19T02:52:06;51.95;;;35.65;;
42096;SDS011;27754;45.414;11.084;2023-10-19T02:54:33;51.30;;;34.55;;
42096;SDS011;27754;45.414;11.084;2023-10-19T02:57:01;52.05;;;35.40;;
42096;SDS011;27754;45.414;11.084;2023-10-19T02:59:33;51.38;;;35.35;;
42096;SDS011;27754;45.414;11.084;2023-10-19T03:02:00;50.17;;;33.95;;
42096;SDS011;27754;45.414;11.084;2023-10-19T03:04:33;48.70;;;35.50;;
42096;SDS011;27754;45.414;11.084;2023-10-19T03:07:03;50.55;;;33.75;;
42096;SDS011;27754;45.414;11.084;2023-10-19T03:09:30;47.53;;;34.00;;
42096;SDS011;27754;45.414;11.084;2023-10-19T03:12:02;48.58;;;32.75;;
42096;SDS011;27754;45.414;11.084;2023-10-19T03:14:40;48.90;;;33.17;;
42096;SDS011;27754;45.414;11.084;2023-10-19T03:17:14;44.08;;;30.77;;
42096;SDS011;27754;45.414;11.084;2023-10-19T03:19:42;42.90;;;29.75;;
42096;SDS011;27754;45.414;11.084;2023-10-19T03:22:09;42.15;;;30.60;;
42096;SDS011;27754;45.414;11.084;2023-10-19T03:24:38;41.20;;;29.25;;
42096;SDS011;27754;45.414;11.084;2023-10-19T03:27:08;39.42;;;27.80;;
42096;SDS011;27754;45.414;11.084;2023-10-19T03:29:44;40.67;;;28.73;;
42096;SDS011;27754;45.414;11.084;2023-10-19T03:32:24;43.92;;;30.38;;
42096;SDS011;27754;45.414;11.084;2023-10-19T03:34:59;43.03;;;30.55;;
42096;SDS011;27754;45.414;11.084;2023-10-19T03:37:26;42.67;;;31.55;;
42096;SDS011;27754;45.414;11.084;2023-10-19T03:39:58;45.58;;;32.38;;
42096;SDS011;27754;45.414;11.084;2023-10-19T03:42:25;42.53;;;30.52;;
42096;SDS011;27754;45.414;11.084;2023-10-19T03:44:54;40.95;;;29.40;;
42096;SDS011;27754;45.414;11.084;2023-10-19T03:47:26;43.45;;;30.52;;
42096;SDS011;27754;45.414;11.084;2023-10-19T03:50:05;41.55;;;29.83;;
42096;SDS011;27754;45.414;11.084;2023-10-19T03:52:40;44.30;;;31.30;;
42096;SDS011;27754;45.414;11.084;2023-10-19T03:55:08;45.50;;;32.05;;
42096;SDS011;27754;45.414;11.084;2023-10-19T03:57:41;42.63;;;31.75;;
42096;SDS011;27754;45.414;11.084;2023-10-19T04:00:13;40.53;;;29.40;;
42096;SDS011;27754;45.414;11.084;2023-10-19T04:02:51;41.92;;;31.13;;
42096;SDS011;27754;45.414;11.084;2023-10-19T04:05:20;40.78;;;29.52;;
42096;SDS011;27754;45.414;11.084;2023-10-19T04:07:49;43.03;;;30.08;;
42096;SDS011;27754;45.414;11.084;2023-10-19T04:10:24;39.65;;;28.98;;
42096;SDS011;27754;45.414;11.084;2023-10-19T04:13:00;40.20;;;29.63;;
42096;SDS011;27754;45.414;11.084;2023-10-19T04:15:28;41.10;;;29.00;;
42096;SDS011;27754;45.414;11.084;2023-10-19T04:17:55;38.28;;;28.98;;
42096;SDS011;27754;45.414;11.084;2023-10-19T04:20:25;41.97;;;29.17;;
42096;SDS011;27754;45.414;11.084;2023-10-19T04:22:52;41.20;;;29.77;;
42096;SDS011;27754;45.414;11.084;2023-10-19T04:25:32;39.85;;;28.67;;
42096;SDS011;27754;45.414;11.084;2023-10-19T04:27:59;38.80;;;27.95;;
42096;SDS011;27754;45.414;11.084;2023-10-19T04:30:27;44.90;;;30.42;;
42096;SDS011;27754;45.414;11.084;2023-10-19T04:32:54;42.78;;;28.17;;
42096;SDS011;27754;45.414;11.084;2023-10-19T04:35:28;39.55;;;30.08;;
42096;SDS011;27754;45.414;11.084;2023-10-19T04:38:00;44.72;;;30.98;;
42096;SDS011;27754;45.414;11.084;2023-10-19T04:40:27;42.83;;;30.45;;
42096;SDS011;27754;45.414;11.084;2023-10-19T04:42:54;39.13;;;27.25;;
42096;SDS011;27754;45.414;11.084;2023-10-19T04:45:21;36.17;;;27.73;;
42096;SDS011;27754;45.414;11.084;2023-10-19T04:47:52;43.17;;;29.95;;
42096;SDS011;27754;45.414;11.084;2023-10-19T04:50:19;41.28;;;27.70;;
42096;SDS011;27754;45.414;11.084;2023-10-19T04:52:47;39.63;;;27.80;;
42096;SDS011;27754;45.414;11.084;2023-10-19T04:55:14;38.78;;;28.17;;
42096;SDS011;27754;45.414;11.084;2023-10-19T04:57:41;43.65;;;29.50;;
42096;SDS011;27754;45.414;11.084;2023-10-19T05:00:08;39.67;;;28.70;;
42096;SDS011;27754;45.414;11.084;2023-10-19T05:02:40;39.92;;;28.40;;
42096;SDS011;27754;45.414;11.084;2023-10-19T05:05:08;40.95;;;28.13;;
42096;SDS011;27754;45.414;11.084;2023-10-19T05:07:36;36.60;;;26.42;;
42096;SDS011;27754;45.414;11.084;2023-10-19T05:10:03;43.28;;;27.48;;
42096;SDS011;27754;45.414;11.084;2023-10-19T05:12:32;40.10;;;28.77;;
42096;SDS011;27754;45.414;11.084;2023-10-19T05:14:59;36.30;;;26.73;;
42096;SDS011;27754;45.414;11.084;2023-10-19T05:17:26;37.15;;;27.15;;
42096;SDS011;27754;45.414;11.084;2023-10-19T05:19:54;39.50;;;28.77;;
42096;SDS011;27754;45.414;11.084;2023-10-19T05:22:23;39.83;;;28.02;;
42096;SDS011;27754;45.414;11.084;2023-10-19T05:24:51;36.35;;;26.00;;
42096;SDS011;27754;45.414;11.084;2023-10-19T05:27:18;38.08;;;27.02;;
42096;SDS011;27754;45.414;11.084;2023-10-19T05:29:46;33.28;;;24.85;;
42096;SDS011;27754;45.414;11.084;2023-10-19T05:32:13;33.00;;;24.17;;
42096;SDS011;27754;45.414;11.084;2023-10-19T05:34:40;31.75;;;24.02;;
42096;SDS011;27754;45.414;11.084;2023-10-19T05:37:08;36.08;;;25.98;;
42096;SDS011;27754;45.414;11.084;2023-10-19T05:39:35;33.08;;;26.38;;
42096;SDS011;27754;45.414;11.084;2023-10-19T05:42:03;35.35;;;24.98;;
42096;SDS011;27754;45.414;11.084;2023-10-19T05:44:31;30.85;;;25.13;;
42096;SDS011;27754;45.414;11.084;2023-10-19T05:46:59;33.85;;;24.95;;
42096;SDS011;27754;45.414;11.084;2023-10-19T05:49:27;31.35;;;24.80;;
42096;SDS011;27754;45.414;11.084;2023-10-19T05:51:55;34.70;;;26.05;;
42096;SDS011;27754;45.414;11.084;2023-10-19T05:54:22;31.95;;;25.00;;
42096;SDS011;27754;45.414;11.084;2023-10-19T05:56:50;38.72;;;25.85;;
42096;SDS011;27754;45.414;11.084;2023-10-19T05:59:18;34.08;;;24.67;;
42096;SDS011;27754;45.414;11.084;2023-10-19T06:01:45;32.05;;;24.27;;
42096;SDS011;27754;45.414;11.084;2023-10-19T06:04:13;31.90;;;24.00;;
42096;SDS011;27754;45.414;11.084;2023-10-19T06:06:43;32.15;;;24.70;;
42096;SDS011;27754;45.414;11.084;2023-10-19T06:09:10;31.48;;;24.92;;
42096;SDS011;27754;45.414;11.084;2023-10-19T06:11:37;37.78;;;25.35;;
42096;SDS011;27754;45.414;11.084;2023-10-19T06:14:08;31.20;;;24.48;;
42096;SDS011;27754;45.414;11.084;2023-10-19T06:16:36;33.40;;;25.67;;
42096;SDS011;27754;45.414;11.084;2023-10-19T06:19:04;30.55;;;24.17;;
42096;SDS011;27754;45.414;11.084;2023-10-19T06:21:32;35.30;;;24.83;;
42096;SDS011;27754;45.414;11.084;2023-10-19T06:24:00;32.08;;;24.73;;
42096;SDS011;27754;45.414;11.084;2023-10-19T06:26:29;32.35;;;23.90;;
42096;SDS011;27754;45.414;11.084;2023-10-19T06:28:56;29.65;;;23.70;;
42096;SDS011;27754;45.414;11.084;2023-10-19T06:31:26;30.58;;;22.60;;
42096;SDS011;27754;45.414;11.084;2023-10-19T06:33:55;33.30;;;24.23;;
42096;SDS011;27754;45.414;11.084;2023-10-19T06:36:23;29.30;;;21.80;;
42096;SDS011;27754;45.414;11.084;2023-10-19T06:38:50;27.52;;;22.50;;
42096;SDS011;27754;45.414;11.084;2023-10-19T06:41:17;27.42;;;22.05;;
42096;SDS011;27754;45.414;11.084;2023-10-19T06:43:45;27.33;;;21.35;;
42096;SDS011;27754;45.414;11.084;2023-10-19T06:46:13;25.60;;;20.35;;
42096;SDS011;27754;45.414;11.084;2023-10-19T06:48:41;26.95;;;19.77;;
42096;SDS011;27754;45.414;11.084;2023-10-19T06:51:09;21.80;;;18.65;;
42096;SDS011;27754;45.414;11.084;2023-10-19T06:53:36;23.10;;;19.38;;
42096;SDS011;27754;45.414;11.084;2023-10-19T06:56:03;25.65;;;19.05;;
42096;SDS011;27754;45.414;11.084;2023-10-19T06:58:31;22.83;;;19.05;;
42096;SDS011;27754;45.414;11.084;2023-10-19T07:00:58;22.75;;;18.98;;
42096;SDS011;27754;45.414;11.084;2023-10-19T07:03:35;21.65;;;18.10;;
42096;SDS011;27754;45.414;11.084;2023-10-19T07:06:02;24.85;;;19.17;;
42096;SDS011;27754;45.414;11.084;2023-10-19T07:08:35;22.23;;;18.00;;
42096;SDS011;27754;45.414;11.084;2023-10-19T07:11:02;22.48;;;17.88;;
42096;SDS011;27754;45.414;11.084;2023-10-19T07:13:29;22.38;;;18.27;;
42096;SDS011;27754;45.414;11.084;2023-10-19T07:16:00;24.33;;;18.63;;
42096;SDS011;27754;45.414;11.084;2023-10-19T07:18:27;26.40;;;21.55;;
42096;SDS011;27754;45.414;11.084;2023-10-19T07:20:55;28.45;;;22.63;;
42096;SDS011;27754;45.414;11.084;2023-10-19T07:23:30;31.55;;;22.85;;
42096;SDS011;27754;45.414;11.084;2023-10-19T07:25:57;31.95;;;24.00;;
42096;SDS011;27754;45.414;11.084;2023-10-19T07:28:27;33.05;;;25.00;;
42096;SDS011;27754;45.414;11.084;2023-10-19T07:30:55;33.78;;;24.63;;
42096;SDS011;27754;45.414;11.084;2023-10-19T07:33:22;32.92;;;25.55;;
42096;SDS011;27754;45.414;11.084;2023-10-19T07:35:50;32.90;;;23.67;;
42096;SDS011;27754;45.414;11.084;2023-10-19T07:38:26;31.77;;;24.77;;
42096;SDS011;27754;45.414;11.084;2023-10-19T07:40:55;30.17;;;23.25;;
42096;SDS011;27754;45.414;11.084;2023-10-19T07:43:23;30.20;;;23.15;;
42096;SDS011;27754;45.414;11.084;2023-10-19T07:45:52;25.73;;;21.05;;
42096;SDS011;27754;45.414;11.084;2023-10-19T07:48:19;28.13;;;22.23;;
42096;SDS011;27754;45.414;11.084;2023-10-19T07:50:46;31.10;;;24.13;;
42096;SDS011;27754;45.414;11.084;2023-10-19T07:53:13;31.77;;;21.75;;
42096;SDS011;27754;45.414;11.084;2023-10-19T07:55:41;29.55;;;22.73;;
42096;SDS011;27754;45.414;11.084;2023-10-19T07:58:08;30.33;;;23.25;;
42096;SDS011;27754;45.414;11.084;2023-10-19T08:00:36;27.58;;;21.63;;
42096;SDS011;27754;45.414;11.084;2023-10-19T08:03:04;27.90;;;22.77;;
42096;SDS011;27754;45.414;11.084;2023-10-19T08:05:32;31.33;;;22.95;;
42096;SDS011;27754;45.414;11.084;2023-10-19T08:08:02;30.13;;;22.25;;
42096;SDS011;27754;45.414;11.084;2023-10-19T08:10:32;36.55;;;25.20;;
42096;SDS011;27754;45.414;11.084;2023-10-19T08:13:01;33.20;;;25.90;;
42096;SDS011;27754;45.414;11.084;2023-10-19T08:15:28;34.03;;;25.45;;
42096;SDS011;27754;45.414;11.084;2023-10-19T08:17:57;36.63;;;26.23;;
42096;SDS011;27754;45.414;11.084;2023-10-19T08:20:24;39.95;;;27.55;;
42096;SDS011;27754;45.414;11.084;2023-10-19T08:22:58;37.08;;;27.08;;
42096;SDS011;27754;45.414;11.084;2023-10-19T08:25:28;35.72;;;24.58;;
42096;SDS011;27754;45.414;11.084;2023-10-19T08:28:15;32.72;;;25.75;;
42096;SDS011;27754;45.414;11.084;2023-10-19T08:30:42;32.72;;;24.27;;
42096;SDS011;27754;45.414;11.084;2023-10-19T08:33:11;37.65;;;26.52;;
42096;SDS011;27754;45.414;11.084;2023-10-19T08:35:40;36.25;;;24.73;;
42096;SDS011;27754;45.414;11.084;2023-10-19T08:38:07;29.95;;;22.83;;
42096;SDS011;27754;45.414;11.084;2023-10-19T08:40:38;30.08;;;21.75;;
42096;SDS011;27754;45.414;11.084;2023-10-19T08:43:06;32.42;;;22.65;;
42096;SDS011;27754;45.414;11.084;2023-10-19T08:45:39;28.88;;;21.23;;
42096;SDS011;27754;45.414;11.084;2023-10-19T08:48:08;29.52;;;23.23;;
42096;SDS011;27754;45.414;11.084;2023-10-19T08:50:35;27.40;;;21.30;;
42096;SDS011;27754;45.414;11.084;2023-10-19T08:53:04;31.02;;;22.05;;
42096;SDS011;27754;45.414;11.084;2023-10-19T08:55:35;28.42;;;21.45;;
42096;SDS011;27754;45.414;11.084;2023-10-19T08:58:05;26.98;;;21.00;;
42096;SDS011;27754;45.414;11.084;2023-10-19T09:00:48;28.23;;;20.00;;
42096;SDS011;27754;45.414;11.084;2023-10-19T09:03:21;27.05;;;20.77;;
42096;SDS011;27754;45.414;11.084;2023-10-19T09:05:51;27.17;;;20.75;;
42096;SDS011;27754;45.414;11.084;2023-10-19T09:08:18;25.98;;;20.88;;
42096;SDS011;27754;45.414;11.084;2023-10-19T09:10:49;27.73;;;20.70;;
42096;SDS011;27754;45.414;11.084;2023-10-19T09:13:19;25.67;;;19.95;;
42096;SDS011;27754;45.414;11.084;2023-10-19T09:15:49;27.08;;;21.20;;
42096;SDS011;27754;45.414;11.084;2023-10-19T09:18:21;29.63;;;21.65;;
42096;SDS011;27754;45.414;11.084;2023-10-19T09:20:50;26.83;;;21.52;;
42096;SDS011;27754;45.414;11.084;2023-10-19T09:25:52;29.90;;;19.38;;
42096;SDS011;27754;45.414;11.084;2023-10-19T09:28:20;23.98;;;19.73;;
42096;SDS011;27754;45.414;11.084;2023-10-19T09:30:48;25.52;;;20.73;;
42096;SDS011;27754;45.414;11.084;2023-10-19T09:33:16;27.10;;;20.17;;
42096;SDS011;27754;45.414;11.084;2023-10-19T09:35:47;26.58;;;21.75;;
42096;SDS011;27754;45.414;11.084;2023-10-19T09:38:15;30.80;;;21.40;;
42096;SDS011;27754;45.414;11.084;2023-10-19T09:40:51;28.95;;;22.25;;
42096;SDS011;27754;45.414;11.084;2023-10-19T09:43:30;29.00;;;21.42;;
42096;SDS011;27754;45.414;11.084;2023-10-19T09:46:11;31.17;;;21.10;;
42096;SDS011;27754;45.414;11.084;2023-10-19T09:48:47;31.95;;;22.42;;
42096;SDS011;27754;45.414;11.084;2023-10-19T09:51:15;29.38;;;22.33;;
42096;SDS011;27754;45.414;11.084;2023-10-19T09:53:51;26.95;;;21.90;;
42096;SDS011;27754;45.414;11.084;2023-10-19T09:56:27;27.33;;;21.70;;
42096;SDS011;27754;45.414;11.084;2023-10-19T09:59:11;28.77;;;20.80;;
42096;SDS011;27754;45.414;11.084;2023-10-19T10:02:08;32.17;;;22.17;;
42096;SDS011;27754;45.414;11.084;2023-10-19T10:04:40;29.60;;;21.92;;
42096;SDS011;27754;45.414;11.084;2023-10-19T10:07:09;31.98;;;22.33;;
42096;SDS011;27754;45.414;11.084;2023-10-19T10:09:39;31.30;;;20.83;;
42096;SDS011;27754;45.414;11.084;2023-10-19T10:14:52;29.70;;;22.15;;
42096;SDS011;27754;45.414;11.084;2023-10-19T10:17:27;27.90;;;21.60;;
42096;SDS011;27754;45.414;11.084;2023-10-19T10:19:56;26.42;;;20.60;;
42096;SDS011;27754;45.414;11.084;2023-10-19T10:22:43;34.00;;;22.52;;
42096;SDS011;27754;45.414;11.084;2023-10-19T10:25:27;30.90;;;22.77;;
42096;SDS011;27754;45.414;11.084;2023-10-19T10:27:55;32.63;;;22.55;;
42096;SDS011;27754;45.414;11.084;2023-10-19T10:30:23;27.73;;;22.40;;
42096;SDS011;27754;45.414;11.084;2023-10-19T10:32:50;31.33;;;23.58;;
42096;SDS011;27754;45.414;11.084;2023-10-19T10:38:17;34.08;;;25.02;;
42096;SDS011;27754;45.414;11.084;2023-10-19T10:40:44;36.15;;;25.98;;
42096;SDS011;27754;45.414;11.084;2023-10-19T10:43:14;29.83;;;24.25;;
42096;SDS011;27754;45.414;11.084;2023-10-19T10:45:42;31.20;;;24.25;;
42096;SDS011;27754;45.414;11.084;2023-10-19T10:48:13;32.08;;;23.42;;
42096;SDS011;27754;45.414;11.084;2023-10-19T10:50:45;30.58;;;23.77;;
42096;SDS011;27754;45.414;11.084;2023-10-19T10:53:13;28.88;;;21.75;;
42096;SDS011;27754;45.414;11.084;2023-10-19T10:55:43;33.50;;;23.48;;
42096;SDS011;27754;45.414;11.084;2023-10-19T10:58:17;26.08;;;22.35;;
42096;SDS011;27754;45.414;11.084;2023-10-19T11:00:45;30.75;;;22.58;;
42096;SDS011;27754;45.414;11.084;2023-10-19T11:03:14;31.35;;;23.90;;
42096;SDS011;27754;45.414;11.084;2023-10-19T11:05:42;32.08;;;24.55;;
42096;SDS011;27754;45.414;11.084;2023-10-19T11:08:15;33.42;;;25.13;;
42096;SDS011;27754;45.414;11.084;2023-10-19T11:10:44;29.38;;;23.55;;
42096;SDS011;27754;45.414;11.084;2023-10-19T11:13:13;30.50;;;23.23;;
42096;SDS011;27754;45.414;11.084;2023-10-19T11:15:49;30.10;;;24.02;;
42096;SDS011;27754;45.414;11.084;2023-10-19T11:18:36;30.70;;;23.83;;
42096;SDS011;27754;45.414;11.084;2023-10-19T11:21:16;30.02;;;22.60;;
42096;SDS011;27754;45.414;11.084;2023-10-19T11:23:45;29.25;;;22.05;;
42096;SDS011;27754;45.414;11.084;2023-10-19T11:26:20;29.67;;;23.40;;
42096;SDS011;27754;45.414;11.084;2023-10-19T11:28:56;29.10;;;23.42;;
42096;SDS011;27754;45.414;11.084;2023-10-19T11:31:24;26.50;;;21.52;;
42096;SDS011;27754;45.414;11.084;2023-10-19T11:33:52;31.08;;;22.67;;
42096;SDS011;27754;45.414;11.084;2023-10-19T11:36:20;28.50;;;22.45;;
42096;SDS011;27754;45.414;11.084;2023-10-19T11:38:49;31.58;;;23.08;;
42096;SDS011;27754;45.414;11.084;2023-10-19T11:41:18;29.77;;;22.30;;
42096;SDS011;27754;45.414;11.084;2023-10-19T11:43:47;29.80;;;23.08;;
42096;SDS011;27754;45.414;11.084;2023-10-19T11:46:16;30.95;;;24.08;;
42096;SDS011;27754;45.414;11.084;2023-10-19T11:48:49;30.23;;;24.02;;
42096;SDS011;27754;45.414;11.084;2023-10-19T11:51:16;32.95;;;24.30;;
42096;SDS011;27754;45.414;11.084;2023-10-19T11:53:43;29.15;;;22.67;;
42096;SDS011;27754;45.414;11.084;2023-10-19T11:56:11;29.42;;;22.95;;
42096;SDS011;27754;45.414;11.084;2023-10-19T11:58:40;32.50;;;23.08;;
42096;SDS011;27754;45.414;11.084;2023-10-19T12:01:09;33.22;;;24.95;;
42096;SDS011;27754;45.414;11.084;2023-10-19T12:03:39;31.30;;;24.40;;
42096;SDS011;27754;45.414;11.084;2023-10-19T12:06:07;31.83;;;25.33;;
42096;SDS011;27754;45.414;11.084;2023-10-19T12:08:35;29.35;;;22.92;;
42096;SDS011;27754;45.414;11.084;2023-10-19T12:11:04;28.92;;;23.00;;
42096;SDS011;27754;45.414;11.084;2023-10-19T12:13:42;31.08;;;22.60;;
42096;SDS011;27754;45.414;11.084;2023-10-19T12:16:13;29.48;;;23.33;;
42096;SDS011;27754;45.414;11.084;2023-10-19T12:18:46;29.20;;;21.75;;
42096;SDS011;27754;45.414;11.084;2023-10-19T12:21:15;30.40;;;21.55;;
42096;SDS011;27754;45.414;11.084;2023-10-19T12:23:44;28.60;;;22.40;;
42096;SDS011;27754;45.414;11.084;2023-10-19T12:26:17;29.05;;;22.42;;
42096;SDS011;27754;45.414;11.084;2023-10-19T12:28:46;27.20;;;22.00;;
42096;SDS011;27754;45.414;11.084;2023-10-19T12:31:15;29.98;;;20.95;;
42096;SDS011;27754;45.414;11.084;2023-10-19T12:33:46;27.67;;;20.95;;
42096;SDS011;27754;45.414;11.084;2023-10-19T12:36:12;29.33;;;21.77;;
42096;SDS011;27754;45.414;11.084;2023-10-19T12:38:52;27.77;;;20.98;;
42096;SDS011;27754;45.414;11.084;2023-10-19T12:41:19;31.10;;;22.05;;
42096;SDS011;27754;45.414;11.084;2023-10-19T12:43:47;29.63;;;22.30;;
42096;SDS011;27754;45.414;11.084;2023-10-19T12:46:14;28.10;;;22.08;;
42096;SDS011;27754;45.414;11.084;2023-10-19T12:48:45;27.90;;;22.67;;
42096;SDS011;27754;45.414;11.084;2023-10-19T12:51:15;29.33;;;22.95;;
42096;SDS011;27754;45.414;11.084;2023-10-19T12:53:50;29.65;;;22.05;;
42096;SDS011;27754;45.414;11.084;2023-10-19T12:56:21;29.35;;;22.52;;
42096;SDS011;27754;45.414;11.084;2023-10-19T12:58:55;31.05;;;22.88;;
42096;SDS011;27754;45.414;11.084;2023-10-19T13:01:22;32.45;;;23.92;;
42096;SDS011;27754;45.414;11.084;2023-10-19T13:03:50;30.77;;;23.35;;
42096;SDS011;27754;45.414;11.084;2023-10-19T13:06:17;31.55;;;23.55;;
42096;SDS011;27754;45.414;11.084;2023-10-19T13:08:46;33.47;;;24.30;;
42096;SDS011;27754;45.414;11.084;2023-10-19T13:11:13;35.15;;;24.48;;
42096;SDS011;27754;45.414;11.084;2023-10-19T13:13:43;30.85;;;24.20;;
42096;SDS011;27754;45.414;11.084;2023-10-19T13:16:10;33.40;;;24.23;;
42096;SDS011;27754;45.414;11.084;2023-10-19T13:18:38;36.35;;;24.25;;
42096;SDS011;27754;45.414;11.084;2023-10-19T13:21:06;32.55;;;24.70;;
42096;SDS011;27754;45.414;11.084;2023-10-19T13:23:37;30.75;;;23.05;;
42096;SDS011;27754;45.414;11.084;2023-10-19T13:26:05;31.05;;;23.60;;
42096;SDS011;27754;45.414;11.084;2023-10-19T13:28:41;30.52;;;23.38;;
42096;SDS011;27754;45.414;11.084;2023-10-19T13:31:09;31.38;;;24.05;;
42096;SDS011;27754;45.414;11.084;2023-10-19T13:33:36;32.67;;;23.90;;
42096;SDS011;27754;45.414;11.084;2023-10-19T13:36:03;29.85;;;23.73;;
42096;SDS011;27754;45.414;11.084;2023-10-19T13:38:32;31.80;;;24.17;;
42096;SDS011;27754;45.414;11.084;2023-10-19T13:41:03;32.17;;;23.90;;
42096;SDS011;27754;45.414;11.084;2023-10-19T13:43:34;31.13;;;23.45;;
42096;SDS011;27754;45.414;11.084;2023-10-19T13:46:04;30.67;;;23.20;;
42096;SDS011;27754;45.414;11.084;2023-10-19T13:48:31;27.83;;;22.92;;
42096;SDS011;27754;45.414;11.084;2023-10-19T13:50:58;30.77;;;22.08;;
42096;SDS011;27754;45.414;11.084;2023-10-19T13:53:45;27.08;;;22.65;;
42096;SDS011;27754;45.414;11.084;2023-10-19T13:56:13;31.08;;;22.20;;
42096;SDS011;27754;45.414;11.084;2023-10-19T13:58:43;27.45;;;21.00;;
42096;SDS011;27754;45.414;11.084;2023-10-19T14:01:13;26.77;;;20.55;;
42096;SDS011;27754;45.414;11.084;2023-10-19T14:03:43;27.90;;;20.58;;
42096;SDS011;27754;45.414;11.084;2023-10-19T14:06:14;26.55;;;19.45;;
42096;SDS011;27754;45.414;11.084;2023-10-19T14:08:41;24.65;;;19.42;;
42096;SDS011;27754;45.414;11.084;2023-10-19T14:11:09;22.50;;;18.60;;
42096;SDS011;27754;45.414;11.084;2023-10-19T14:13:36;24.88;;;18.17;;
42096;SDS011;27754;45.414;11.084;2023-10-19T14:16:06;22.13;;;16.10;;
42096;SDS011;27754;45.414;11.084;2023-10-19T14:18:38;20.10;;;15.75;;
42096;SDS011;27754;45.414;11.084;2023-10-19T14:21:11;21.42;;;15.48;;
42096;SDS011;27754;45.414;11.084;2023-10-19T14:23:43;20.00;;;16.05;;
42096;SDS011;27754;45.414;11.084;2023-10-19T14:26:11;20.23;;;15.57;;
42096;SDS011;27754;45.414;11.084;2023-10-19T14:28:39;21.75;;;14.98;;
42096;SDS011;27754;45.414;11.084;2023-10-19T14:31:07;22.88;;;16.08;;
42096;SDS011;27754;45.414;11.084;2023-10-19T14:33:34;21.10;;;16.20;;
42096;SDS011;27754;45.414;11.084;2023-10-19T14:36:03;19.83;;;15.90;;